createdAt,value
2023-05-06T00:00:08.214Z,2.58
2023-05-06T00:03:17.180Z,2.60
2023-05-06T00:06:19.732Z,2.80
2023-05-06T00:09:24.075Z,2.60
2023-05-06T00:12:26.415Z,2.40
2023-05-06T00:15:30.175Z,2.78
2023-05-06T00:18:34.318Z,2.47
2023-05-06T00:21:36.725Z,2.50
2023-05-06T00:24:39.194Z,2.50
2023-05-06T00:27:41.534Z,2.38
2023-05-06T00:30:43.970Z,2.63
2023-05-06T00:33:46.419Z,2.50
2023-05-06T00:36:48.837Z,2.50
2023-05-06T00:39:51.197Z,2.50
2023-05-06T00:42:53.482Z,2.20
2023-05-06T00:45:55.951Z,2.45
2023-05-06T00:48:58.468Z,2.30
2023-05-06T00:52:01.395Z,2.23
2023-05-06T00:55:03.872Z,2.40
2023-05-06T00:58:06.583Z,2.60
2023-05-06T01:01:08.904Z,2.40
2023-05-06T01:04:12.377Z,2.60
2023-05-06T01:07:24.904Z,2.50
2023-05-06T01:10:43.089Z,2.30
2023-05-06T01:14:17.930Z,2.25
2023-05-06T01:17:21.155Z,2.50
2023-05-06T01:20:23.889Z,2.70
2023-05-06T01:23:26.238Z,2.40
2023-05-06T01:26:28.722Z,2.58
2023-05-06T01:29:31.218Z,2.47
2023-05-06T01:33:03.981Z,2.60
2023-05-06T01:37:00.359Z,2.67
2023-05-06T01:40:04.065Z,2.50
2023-05-06T01:43:07.965Z,2.30
2023-05-06T01:46:14.043Z,2.45
2023-05-06T01:49:17.360Z,2.40
2023-05-06T01:52:21.984Z,2.47
2023-05-06T01:55:24.424Z,2.23
2023-05-06T01:58:26.886Z,2.60
2023-05-06T02:01:29.370Z,2.42
2023-05-06T02:04:32.375Z,2.20
2023-05-06T02:07:35.386Z,2.20
2023-05-06T02:10:37.872Z,2.40
2023-05-06T02:13:43.768Z,2.50
2023-05-06T02:16:46.731Z,2.38
2023-05-06T02:19:49.834Z,2.40
2023-05-06T02:22:52.267Z,2.60
2023-05-06T02:25:54.703Z,2.43
2023-05-06T02:28:57.116Z,2.25
2023-05-06T02:31:59.522Z,2.13
2023-05-06T02:35:02.110Z,2.20
2023-05-06T02:38:04.611Z,2.30
2023-05-06T02:41:06.958Z,2.20
2023-05-06T02:44:09.350Z,2.53
2023-05-06T02:47:11.884Z,2.30
2023-05-06T02:50:14.257Z,2.42
2023-05-06T02:53:16.700Z,2.30
2023-05-06T02:56:19.020Z,2.33
2023-05-06T02:59:22.189Z,2.22
2023-05-06T03:02:24.552Z,2.20
2023-05-06T03:05:27.263Z,2.30
2023-05-06T03:08:29.636Z,2.13
2023-05-06T03:11:32.820Z,2.30
2023-05-06T03:14:39.224Z,2.40
2023-05-06T03:17:41.632Z,3.45
2023-05-06T03:20:45.039Z,2.22
2023-05-06T03:23:47.352Z,2.47
2023-05-06T03:26:50.618Z,2.00
2023-05-06T03:29:53.409Z,2.35
2023-05-06T03:33:01.242Z,2.30
2023-05-06T03:36:06.966Z,2.42
2023-05-06T03:39:10.769Z,2.40
2023-05-06T03:42:14.979Z,2.40
2023-05-06T03:45:17.820Z,2.55
2023-05-06T03:48:21.857Z,2.40
2023-05-06T03:51:24.792Z,2.25
2023-05-06T03:54:27.784Z,2.20
2023-05-06T03:57:30.478Z,2.47
2023-05-06T04:00:33.128Z,2.40
2023-05-06T04:03:35.724Z,2.28
2023-05-06T04:06:38.267Z,2.25
2023-05-06T04:09:40.722Z,2.30
2023-05-06T04:12:44.182Z,2.07
2023-05-06T04:15:49.083Z,2.40
2023-05-06T04:18:57.666Z,2.38
2023-05-06T04:22:00.663Z,2.00
2023-05-06T04:25:03.190Z,2.40
2023-05-06T04:28:06.723Z,2.30
2023-05-06T04:31:10.865Z,2.30
2023-05-06T04:34:21.931Z,2.20
2023-05-06T04:37:24.600Z,2.25
2023-05-06T04:40:35.483Z,2.33
2023-05-06T04:43:38.744Z,2.23
2023-05-06T04:46:47.624Z,2.40
2023-05-06T04:49:51.297Z,2.10
2023-05-06T04:52:53.949Z,2.08
2023-05-06T04:55:56.828Z,2.20
2023-05-06T04:58:59.315Z,2.17
2023-05-06T05:02:02.565Z,2.30
2023-05-06T05:05:05.380Z,2.20
2023-05-06T05:08:09.554Z,2.10
2023-05-06T05:11:12.900Z,2.20
2023-05-06T05:14:16.027Z,1.80
2023-05-06T05:17:18.855Z,2.40
2023-05-06T05:20:24.041Z,2.17
2023-05-06T05:23:26.621Z,2.85
2023-05-06T05:26:28.999Z,2.60
2023-05-06T05:29:33.383Z,2.00
2023-05-06T05:32:39.077Z,2.55
2023-05-06T05:35:41.548Z,2.38
2023-05-06T05:38:43.978Z,2.50
2023-05-06T05:41:46.769Z,2.20
2023-05-06T05:44:50.031Z,2.10
2023-05-06T05:47:54.152Z,2.10
2023-05-06T05:50:57.985Z,2.08
2023-05-06T05:54:00.836Z,2.15
2023-05-06T05:57:03.973Z,2.10
2023-05-06T06:00:07.629Z,2.40
2023-05-06T06:03:19.437Z,1.85
2023-05-06T06:06:21.890Z,2.10
2023-05-06T06:09:25.037Z,2.20
2023-05-06T06:12:28.283Z,2.20
2023-05-06T06:15:31.702Z,2.23
2023-05-06T06:18:34.197Z,1.90
2023-05-06T06:21:36.909Z,2.20
2023-05-06T06:24:39.467Z,2.60
2023-05-06T06:27:41.825Z,2.80
2023-05-06T06:30:44.258Z,2.30
2023-05-06T06:33:47.191Z,1.90
2023-05-06T06:36:49.601Z,1.98
2023-05-06T06:39:51.916Z,1.90
2023-05-06T06:42:54.652Z,2.00
2023-05-06T06:46:16.081Z,1.80
2023-05-06T06:49:18.490Z,1.90
2023-05-06T06:52:20.895Z,2.20
2023-05-06T06:55:23.298Z,2.22
2023-05-06T06:58:25.671Z,2.00
2023-05-06T07:01:28.041Z,1.80
2023-05-06T07:04:30.877Z,2.50
2023-05-06T07:07:33.265Z,2.08
2023-05-06T07:10:36.518Z,2.10
2023-05-06T07:13:39.037Z,2.00
2023-05-06T07:16:42.100Z,2.13
2023-05-06T07:19:45.263Z,1.90
2023-05-06T07:22:47.651Z,1.80
2023-05-06T07:25:50.054Z,2.00
2023-05-06T07:28:52.573Z,1.83
2023-05-06T07:31:54.924Z,2.00
2023-05-06T07:34:57.251Z,2.00
2023-05-06T07:37:59.672Z,1.80
2023-05-06T07:41:02.125Z,2.00
2023-05-06T07:44:04.784Z,2.00
2023-05-06T07:47:07.399Z,1.80
2023-05-06T07:50:10.675Z,2.00
2023-05-06T07:53:13.976Z,1.90
2023-05-06T07:56:16.373Z,2.00
2023-05-06T07:59:18.928Z,1.93
2023-05-06T08:02:21.346Z,1.97
2023-05-06T08:05:23.674Z,2.00
2023-05-06T08:08:28.894Z,1.90
2023-05-06T08:11:31.499Z,1.90
2023-05-06T08:14:33.844Z,2.00
2023-05-06T08:17:36.323Z,2.30
2023-05-06T08:20:39.114Z,2.08
2023-05-06T08:23:41.448Z,1.80
2023-05-06T08:26:43.832Z,1.75
2023-05-06T08:29:46.199Z,1.90
2023-05-06T08:32:48.582Z,1.90
2023-05-06T08:35:51.042Z,1.98
2023-05-06T08:38:53.414Z,2.03
2023-05-06T08:41:56.531Z,1.90
2023-05-06T08:44:59.947Z,1.63
2023-05-06T08:48:02.611Z,2.00
2023-05-06T08:51:05.453Z,1.90
2023-05-06T08:54:08.075Z,1.70
2023-05-06T08:57:12.548Z,2.00
2023-05-06T09:00:15.819Z,1.87
2023-05-06T09:03:18.335Z,1.83
2023-05-06T09:06:21.287Z,1.73
2023-05-06T09:09:23.675Z,1.70
2023-05-06T09:12:26.455Z,2.00
2023-05-06T09:15:39.791Z,1.87
2023-05-06T09:18:42.563Z,1.70
2023-05-06T09:21:47.293Z,1.90
2023-05-06T09:24:56.927Z,1.88
2023-05-06T09:28:10.220Z,1.90
2023-05-06T09:31:14.890Z,1.83
2023-05-06T09:34:18.153Z,1.80
2023-05-06T09:37:21.140Z,1.90
2023-05-06T09:40:24.507Z,1.70
2023-05-06T09:43:26.908Z,1.63
2023-05-06T09:46:29.496Z,1.90
2023-05-06T09:49:32.352Z,1.90
2023-05-06T09:52:35.282Z,1.85
2023-05-06T09:55:37.973Z,1.83
2023-05-06T09:58:40.650Z,1.90
2023-05-06T10:01:43.098Z,1.80
2023-05-06T10:04:46.582Z,1.67
2023-05-06T10:07:49.938Z,1.90
2023-05-06T10:11:10.744Z,1.88
2023-05-06T10:14:13.130Z,1.95
2023-05-06T10:17:16.523Z,2.00
2023-05-06T10:20:19.589Z,1.60
2023-05-06T10:23:26.971Z,1.80
2023-05-06T10:26:31.076Z,1.90
2023-05-06T10:29:36.257Z,1.75
2023-05-06T10:32:42.187Z,1.83
2023-05-06T10:35:53.411Z,1.80
2023-05-06T10:38:57.527Z,1.80
2023-05-06T10:42:02.417Z,1.80
2023-05-06T10:45:06.011Z,2.05
2023-05-06T10:48:14.769Z,1.90
2023-05-06T10:51:17.175Z,1.77
2023-05-06T10:54:20.499Z,2.10
2023-05-06T10:57:26.938Z,1.88
2023-05-06T11:00:34.138Z,2.10
2023-05-06T11:03:36.567Z,1.87
2023-05-06T11:06:46.252Z,2.00
2023-05-06T11:09:56.385Z,1.80
2023-05-06T11:12:59.143Z,1.80
2023-05-06T11:16:03.998Z,1.77
2023-05-06T11:19:06.453Z,1.90
2023-05-06T11:22:08.904Z,1.90
2023-05-06T11:25:11.327Z,1.90
2023-05-06T11:28:14.926Z,1.92
2023-05-06T11:31:17.780Z,1.63
2023-05-06T11:34:26.218Z,1.80
2023-05-06T11:37:29.758Z,1.70
2023-05-06T11:40:32.386Z,1.60
2023-05-06T11:43:34.902Z,2.00
2023-05-06T11:46:37.416Z,1.80
2023-05-06T11:49:43.369Z,1.87
2023-05-06T11:52:45.737Z,1.70
2023-05-06T11:55:49.797Z,1.80
2023-05-06T11:58:52.312Z,1.58
2023-05-06T12:01:57.084Z,1.90
2023-05-06T12:05:02.998Z,1.83
2023-05-06T12:08:13.329Z,1.83
2023-05-06T12:11:22.621Z,1.60
2023-05-06T12:14:25.208Z,1.63
2023-05-06T12:17:27.543Z,1.77
2023-05-06T12:20:29.986Z,1.90
2023-05-06T12:23:32.463Z,1.60
2023-05-06T12:26:45.804Z,1.70
2023-05-06T12:29:54.363Z,1.90
2023-05-06T12:33:01.003Z,1.65
2023-05-06T12:36:07.466Z,1.70
2023-05-06T12:39:11.809Z,1.60
2023-05-06T12:42:20.494Z,1.60
2023-05-06T12:45:23.201Z,1.67
2023-05-06T12:48:25.578Z,1.50
2023-05-06T12:51:28.899Z,1.70
2023-05-06T12:54:31.651Z,1.67
2023-05-06T12:57:34.019Z,1.92
2023-05-06T13:00:36.365Z,1.70
2023-05-06T13:03:41.044Z,1.85
2023-05-06T13:06:43.607Z,1.60
2023-05-06T13:09:46.291Z,1.77
2023-05-06T13:12:48.810Z,2.05
2023-05-06T13:15:53.135Z,1.90
2023-05-06T13:18:55.613Z,1.70
2023-05-06T13:21:58.811Z,1.80
2023-05-06T13:25:01.676Z,1.73
2023-05-06T13:28:04.119Z,1.90
2023-05-06T13:31:06.807Z,1.70
2023-05-06T13:34:09.160Z,1.80
2023-05-06T13:37:11.556Z,1.80
2023-05-06T13:40:14.650Z,1.83
2023-05-06T13:43:17.584Z,1.80
2023-05-06T13:46:20.062Z,1.90
2023-05-06T13:49:22.510Z,1.80
2023-05-06T13:52:24.826Z,1.60
2023-05-06T13:55:27.184Z,1.90
2023-05-06T13:58:29.592Z,1.80
2023-05-06T14:01:31.975Z,2.45
2023-05-06T14:04:34.391Z,2.97
2023-05-06T14:07:38.412Z,1.60
2023-05-06T14:10:42.678Z,1.77
2023-05-06T14:13:44.984Z,2.10
2023-05-06T14:16:47.649Z,2.03
2023-05-06T14:19:50.016Z,2.13
2023-05-06T14:22:52.422Z,2.80
2023-05-06T14:25:54.790Z,2.13
2023-05-06T14:28:57.222Z,2.00
2023-05-06T14:31:59.696Z,1.88
2023-05-06T14:35:02.223Z,2.58
2023-05-06T14:38:04.679Z,2.50
2023-05-06T14:41:07.033Z,2.40
2023-05-06T14:44:09.410Z,2.50
2023-05-06T14:47:11.741Z,1.90
2023-05-06T14:50:14.077Z,2.53
2023-05-06T14:53:16.591Z,1.97
2023-05-06T14:56:18.947Z,2.00
2023-05-06T14:59:21.423Z,1.77
2023-05-06T15:02:23.849Z,2.10
2023-05-06T15:05:26.508Z,1.90
2023-05-06T15:08:28.895Z,2.17
2023-05-06T15:11:32.273Z,1.70
2023-05-06T15:14:34.654Z,1.85
2023-05-06T15:17:37.598Z,1.80
2023-05-06T15:20:40.082Z,1.70
2023-05-06T15:23:42.432Z,1.90
2023-05-06T15:26:44.952Z,1.80
2023-05-06T15:29:47.443Z,2.58
2023-05-06T15:32:49.863Z,1.80
2023-05-06T15:35:52.213Z,1.80
2023-05-06T15:39:00.358Z,1.90
2023-05-06T15:42:03.070Z,1.70
2023-05-06T15:45:06.416Z,2.28
2023-05-06T15:48:08.794Z,1.70
2023-05-06T15:51:11.258Z,1.73
2023-05-06T15:54:18.064Z,2.00
2023-05-06T15:57:20.485Z,2.03
2023-05-06T16:00:23.274Z,1.77
2023-05-06T16:03:25.823Z,1.80
2023-05-06T16:06:28.240Z,1.65
2023-05-06T16:09:30.655Z,1.83
2023-05-06T16:12:33.143Z,1.83
2023-05-06T16:15:35.742Z,1.67
2023-05-06T16:18:38.119Z,1.60
2023-05-06T16:21:40.601Z,1.60
2023-05-06T16:24:42.995Z,1.63
2023-05-06T16:27:45.312Z,1.57
2023-05-06T16:30:47.757Z,1.70
2023-05-06T16:33:50.939Z,1.52
2023-05-06T16:36:54.408Z,1.80
2023-05-06T16:39:56.804Z,1.93
2023-05-06T16:42:59.271Z,1.70
2023-05-06T16:46:01.609Z,1.85
2023-05-06T16:49:04.680Z,1.80
2023-05-06T16:52:07.020Z,1.60
2023-05-06T16:55:09.635Z,1.80
2023-05-06T16:58:12.046Z,1.63
2023-05-06T17:01:14.500Z,1.60
2023-05-06T17:04:17.019Z,1.50
2023-05-06T17:07:19.481Z,1.58
2023-05-06T17:10:22.168Z,1.70
2023-05-06T17:13:24.632Z,1.60
2023-05-06T17:16:27.093Z,1.80
2023-05-06T17:19:29.499Z,1.65
2023-05-06T17:22:32.152Z,1.60
2023-05-06T17:28:36.845Z,1.70
2023-05-06T17:31:39.261Z,2.00
2023-05-06T17:34:41.747Z,1.60
2023-05-06T17:37:44.068Z,1.80
2023-05-06T17:40:46.468Z,1.77
2023-05-06T17:43:48.841Z,1.50
2023-05-06T17:46:51.190Z,1.88
2023-05-06T17:49:53.914Z,1.90
2023-05-06T17:52:56.313Z,2.20
2023-05-06T17:55:58.661Z,2.20
2023-05-06T17:59:02.714Z,1.60
2023-05-06T18:02:08.508Z,1.90
2023-05-06T18:05:11.688Z,1.70
2023-05-06T18:08:14.392Z,1.80
2023-05-06T18:11:17.473Z,1.90
2023-05-06T18:14:19.895Z,1.90
2023-05-06T18:17:22.274Z,1.77
2023-05-06T18:20:24.718Z,1.98
2023-05-06T18:23:27.093Z,2.15
2023-05-06T18:26:43.984Z,1.70
2023-05-06T18:29:48.429Z,2.03
2023-05-06T18:32:51.776Z,2.60
2023-05-06T18:35:54.713Z,2.00
2023-05-06T18:38:57.151Z,1.70
2023-05-06T18:41:59.949Z,1.80
2023-05-06T18:45:04.641Z,1.87
2023-05-06T18:48:07.087Z,2.10
2023-05-06T18:51:17.114Z,1.92
2023-05-06T18:54:19.625Z,1.77
2023-05-06T18:57:22.600Z,2.20
2023-05-06T19:00:26.501Z,2.17
2023-05-06T19:03:29.457Z,2.08
2023-05-06T19:06:32.581Z,1.98
2023-05-06T19:09:37.222Z,1.88
2023-05-06T19:12:39.718Z,1.77
2023-05-06T19:15:42.204Z,1.80
2023-05-06T19:18:44.586Z,2.10
2023-05-06T19:21:46.902Z,1.90
2023-05-06T19:24:49.217Z,1.95
2023-05-06T19:27:52.730Z,1.70
2023-05-06T19:30:55.114Z,1.70
2023-05-06T19:33:57.559Z,1.95
2023-05-06T19:36:59.873Z,1.60
2023-05-06T19:40:03.934Z,2.00
2023-05-06T19:43:06.418Z,1.77
2023-05-06T19:46:09.405Z,1.60
2023-05-06T19:49:11.753Z,1.85
2023-05-06T19:52:14.152Z,1.60
2023-05-06T19:55:16.757Z,1.40
2023-05-06T19:58:19.466Z,1.70
2023-05-06T20:01:23.976Z,1.50
2023-05-06T20:04:26.495Z,1.80
2023-05-06T20:07:28.833Z,1.65
2023-05-06T20:10:31.192Z,1.67
2023-05-06T20:13:33.749Z,1.90
2023-05-06T20:16:36.320Z,1.57
2023-05-06T20:19:39.094Z,1.42
2023-05-06T20:22:41.597Z,1.60
2023-05-06T20:25:43.985Z,2.00
2023-05-06T20:28:46.422Z,1.60
2023-05-06T20:31:48.837Z,1.77
2023-05-06T20:34:51.430Z,1.58
2023-05-06T20:37:54.643Z,1.88
2023-05-06T20:40:58.874Z,1.90
2023-05-06T20:44:01.445Z,1.60
2023-05-06T20:47:03.899Z,1.73
2023-05-06T20:50:06.680Z,1.80
2023-05-06T20:53:09.059Z,1.77
2023-05-06T20:56:24.753Z,1.95
2023-05-06T20:59:29.500Z,1.80
2023-05-06T21:02:32.993Z,1.80
2023-05-06T21:05:36.730Z,1.80
2023-05-06T21:08:39.121Z,1.92
2023-05-06T21:11:41.447Z,1.63
2023-05-06T21:14:43.809Z,1.50
2023-05-06T21:17:46.434Z,1.77
2023-05-06T21:20:49.058Z,1.83
2023-05-06T21:23:51.712Z,1.75
2023-05-06T21:26:54.039Z,1.75
2023-05-06T21:29:56.811Z,1.77
2023-05-06T21:32:59.229Z,1.70
2023-05-06T21:36:01.622Z,1.83
2023-05-06T21:39:12.114Z,1.60
2023-05-06T21:42:14.552Z,1.88
2023-05-06T21:45:17.156Z,1.83
2023-05-06T21:48:19.511Z,1.70
2023-05-06T21:51:21.885Z,1.67
2023-05-06T21:54:25.112Z,1.90
2023-05-06T21:57:27.478Z,1.88
2023-05-06T22:00:30.211Z,1.60
2023-05-06T22:03:32.705Z,1.40
2023-05-06T22:06:35.190Z,1.85
2023-05-06T22:09:37.779Z,1.80
2023-05-06T22:12:40.166Z,1.75
2023-05-06T22:15:43.408Z,1.60
2023-05-06T22:18:45.892Z,1.80
2023-05-06T22:21:48.243Z,1.70
2023-05-06T22:24:50.776Z,1.42
2023-05-06T22:27:53.120Z,1.83
2023-05-06T22:30:55.562Z,1.70
2023-05-06T22:34:03.450Z,1.80
2023-05-06T22:37:09.824Z,1.65
2023-05-06T22:40:12.702Z,1.77
2023-05-06T22:43:15.045Z,1.50
2023-05-06T22:46:17.447Z,1.90
2023-05-06T22:49:20.218Z,1.80
2023-05-06T22:52:22.626Z,1.70
2023-05-06T22:55:24.953Z,1.70
2023-05-06T22:58:27.304Z,1.60
2023-05-06T23:01:33.057Z,1.70
2023-05-06T23:04:35.433Z,1.50
2023-05-06T23:07:38.716Z,1.60
2023-05-06T23:10:41.478Z,1.45
2023-05-06T23:13:43.819Z,1.60
2023-05-06T23:16:46.291Z,1.60
2023-05-06T23:19:48.622Z,1.80
2023-05-06T23:22:51.072Z,1.70
2023-05-06T23:25:53.426Z,1.65
2023-05-06T23:28:55.886Z,1.50
2023-05-06T23:31:58.220Z,1.60
2023-05-06T23:35:04.775Z,1.70
2023-05-06T23:38:07.212Z,1.83
2023-05-06T23:41:09.573Z,1.60
2023-05-06T23:44:11.983Z,1.60
2023-05-06T23:47:14.303Z,1.80
2023-05-06T23:50:16.649Z,1.60
2023-05-06T23:53:18.984Z,1.90
2023-05-06T23:56:21.903Z,1.75
2023-05-06T23:59:24.262Z,1.80
